Time;durP1;ratioP1;P1;durP2;ratioP2;P2;SDS_P1;SDS_P2;PMS_P1;PMS_P2;Temp;Humidity;BMP_temperature;BMP_pressure;BME280_temperature;BME280_humidity;BME280_pressure;Samples;Min_cycle;Max_cycle;Signal;HPM_P1;HPM_P2
2022/02/11 00:00:35;;;;;;;;;;;;;;;;;;7394793;19;2337;-45
2022/02/11 00:05:46;;;;;;;;;;;;;;;;;;7394136;19;2354;-46
2022/02/11 00:08:11;;;;;;;;;;;;;;;;;;7394492;19;2239;-45
2022/02/11 00:10:38;;;;;;;;;;;;;;;;;;7393769;19;2212;-44
2022/02/11 00:13:08;;;;;;;;;;;;;;;;;;7393475;19;2384;-44
2022/02/11 00:15:44;;;;;;;;;;;;;;;;;;7393361;19;2559;-47
2022/02/11 00:18:13;;;;;;;;;;;;;;;;;;7394106;19;1727;-44
2022/02/11 00:20:45;;;;;;;;;;;;;;;;;;7394125;19;2250;-44
2022/02/11 00:23:12;;;;;;;;;;;;;;;;;;7393858;19;2267;-46
2022/02/11 00:25:46;;;;;;;;;;;;;;;;;;7393728;19;2219;-45
2022/02/11 00:33:31;;;;;;;;;;;;;;;;;;7392270;19;2221;-44
2022/02/11 00:38:39;;;;;;;;;;;;;;;;;;7393438;19;2467;-45
2022/02/11 01:02:52;;;;;;;;;;;;;;;;;;7390368;19;2383;-47
2022/02/11 01:05:06;;;;;;;;;;;;;;;;;;7391886;19;2318;-46
2022/02/11 01:07:34;;;;;;;;;;;;;;;;;;7392320;19;2237;-48
2022/02/11 01:10:01;;;;;;;;;;;;;;;;;;7391604;19;2295;-49
2022/02/11 01:12:29;;;;;;;;;;;;;;;;;;7391602;19;2055;-42
2022/02/11 01:14:57;;;;;;;;;;;;;;;;;;7391904;19;2288;-43
2022/02/11 01:20:09;;;;;;;;;;;;;;;;;;7390988;19;1974;-42
2022/02/11 01:30:39;;;;;;;;;;;;;;;;;;7391282;19;2227;-42
2022/02/11 01:39:06;;;;;;;;;;;;;;;;;;7391501;19;2301;-45
2022/02/11 01:44:38;;;;;;;;;;;;;;;;;;7391547;19;2108;-45
2022/02/11 02:09:10;;;;;;;;;;;;;;;;;;7386615;19;2039;-50
2022/02/11 02:12:16;;;;;;;;;;;;;;;;;;7386608;19;2182;-51
2022/02/11 02:22:52;;;;;;;;;;;;;;;;;;7390065;19;2225;-50
2022/02/11 02:25:54;;;;;;;;;;;;;;;;;;7389709;19;2262;-48
2022/02/11 02:39:23;;;;;;;;;;;;;;;;;;7397712;19;2071;-45
2022/02/11 02:58:17;;;;;;;;;;;;;;;;;;7396365;19;2134;-50
2022/02/11 03:15:24;;;;;;;;;;;;;;;;;;7393838;19;2280;-48
2022/02/11 03:51:01;;;;;;;;;;;;;;;;;;7392983;19;2222;-44
2022/02/11 04:56:31;;;;;;;;;;;;;;;;;;7391089;19;2118;-44
2022/02/11 05:01:45;;;;;;;;;;;;;;;;;;7392806;19;2478;-43
2022/02/11 05:04:12;;;;;;;;;;;;;;;;;;7392791;19;2253;-42
2022/02/11 05:06:39;;;;;;;;;;;;;;;;;;7392322;19;2215;-44
2022/02/11 05:09:06;;;;;;;;;;;;;;;;;;7391796;19;2086;-46
2022/02/11 05:11:34;;;;;;;;;;;;;;;;;;7391724;19;2212;-50
2022/02/11 05:14:02;;;;;;;;;;;;;;;;;;7391482;19;2155;-42
2022/02/11 05:16:29;;;;;;;;;;;;;;;;;;7392463;19;2345;-43
2022/02/11 05:18:56;;;;;;;;;;;;;;;;;;7391924;19;2204;-42
2022/02/11 05:21:24;;;;;;;;;;;;;;;;;;7391954;19;2187;-42
2022/02/11 05:23:51;;;;;;;;;;;;;;;;;;7391143;19;2078;-45
2022/02/11 05:26:19;;;;;;;;;;;;;;;;;;7390819;19;2511;-45
2022/02/11 05:28:46;;;;;;;;;;;;;;;;;;7391597;19;2263;-41
2022/02/11 05:31:13;;;;;;;;;;;;;;;;;;7391569;19;2125;-45
2022/02/11 05:33:40;;;;;;;;;;;;;;;;;;7391264;19;1911;-42
2022/02/11 05:36:08;;;;;;;;;;;;;;;;;;7391409;19;1936;-47
2022/02/11 05:38:35;;;;;;;;;;;;;;;;;;7391168;19;2381;-43
2022/02/11 05:41:03;;;;;;;;;;;;;;;;;;7390848;19;2243;-46
2022/02/11 05:43:30;;;;;;;;;;;;;;;;;;7391559;19;2324;-42
2022/02/11 05:45:58;;;;;;;;;;;;;;;;;;7396205;19;1659;-41
2022/02/11 05:48:25;;;;;;;;;;;;;;;;;;7391540;19;2515;-43
2022/02/11 05:50:52;;;;;;;;;;;;;;;;;;7390009;19;2397;-49
2022/02/11 05:53:19;;;;;;;;;;;;;;;;;;7390583;19;2254;-48
2022/02/11 05:55:47;;;;;;;;;;;;;;;;;;7389198;19;2325;-40
2022/02/11 05:58:15;;;;;;;;;;;;;;;;;;7390318;19;2331;-46
2022/02/11 06:00:42;;;;;;;;;;;;;;;;;;7391016;19;2108;-45
2022/02/11 06:03:10;;;;;;;;;;;;;;;;;;7390584;19;2173;-41
2022/02/11 06:05:37;;;;;;;;;;;;;;;;;;7390128;19;2018;-41
2022/02/11 06:08:04;;;;;;;;;;;;;;;;;;7398293;19;2282;-43
2022/02/11 06:10:31;;;;;;;;;;;;;;;;;;7398166;19;2104;-48
2022/02/11 06:12:59;;;;;;;;;;;;;;;;;;7398994;19;2224;-45
2022/02/11 06:15:26;;;;;;;;;;;;;;;;;;7396401;19;2219;-48
2022/02/11 06:17:53;;;;;;;;;;;;;;;;;;7398067;19;2446;-42
2022/02/11 06:20:27;;;;;;;;;;;;;;;;;;7397644;19;2235;-51
2022/02/11 06:22:58;;;;;;;;;;;;;;;;;;7397682;19;1912;-46
2022/02/11 06:25:25;;;;;;;;;;;;;;;;;;7396380;19;3442;-45
2022/02/11 06:27:53;;;;;;;;;;;;;;;;;;7396048;19;2311;-43
2022/02/11 06:30:20;;;;;;;;;;;;;;;;;;7396771;19;2285;-43
2022/02/11 06:32:47;;;;;;;;;;;;;;;;;;7397447;19;2003;-47
2022/02/11 06:35:14;;;;;;;;;;;;;;;;;;7395388;19;1918;-44
2022/02/11 06:37:45;;;;;;;;;;;;;;;;;;7397025;19;2301;-44
2022/02/11 06:40:13;;;;;;;;;;;;;;;;;;7395398;19;1955;-43
2022/02/11 06:42:41;;;;;;;;;;;;;;;;;;7392005;19;2264;-42
2022/02/11 06:45:08;;;;;;;;;;;;;;;;;;7399666;19;2317;-43
2022/02/11 06:47:36;;;;;;;;;;;;;;;;;;7395229;19;1615;-42
2022/02/11 06:50:03;;;;;;;;;;;;;;;;;;7395162;19;2311;-42
2022/02/11 06:52:32;;;;;;;;;;;;;;;;;;7396809;19;2249;-41
2022/02/11 06:54:59;;;;;;;;;;;;;;;;;;7395520;19;2564;-43
2022/02/11 06:57:26;;;;;;;;;;;;;;;;;;7396273;19;2374;-43
2022/02/11 06:59:53;;;;;;;;;;;;;;;;;;7397168;19;2360;-42
2022/02/11 07:02:21;;;;;;;;;;;;;;;;;;7396232;19;2331;-43
2022/02/11 07:04:48;;;;;;;;;;;;;;;;;;7395886;19;2070;-42
2022/02/11 07:07:15;;;;;;;;;;;;;;;;;;7396341;19;2175;-43
2022/02/11 07:09:42;;;;;;;;;;;;;;;;;;7396201;19;2399;-42
2022/02/11 07:12:09;;;;;;;;;;;;;;;;;;7395902;19;2117;-45
2022/02/11 07:14:38;;;;;;;;;;;;;;;;;;7395012;19;2332;-42
2022/02/11 07:17:05;;;;;;;;;;;;;;;;;;7395792;19;2509;-42
2022/02/11 07:19:35;;;;;;;;;;;;;;;;;;7394575;19;2328;-43
2022/02/11 07:22:03;;;;;;;;;;;;;;;;;;7395695;19;2249;-42
2022/02/11 07:24:30;;;;;;;;;;;;;;;;;;7396045;19;2157;-42
2022/02/11 07:26:58;;;;;;;;;;;;;;;;;;7395331;19;2192;-43
2022/02/11 07:29:25;;;;;;;;;;;;;;;;;;7396067;19;2303;-46
2022/02/11 07:31:52;;;;;;;;;;;;;;;;;;7395258;19;2395;-43
2022/02/11 07:34:19;;;;;;;;;;;;;;;;;;7395115;19;2323;-42
2022/02/11 07:36:46;;;;;;;;;;;;;;;;;;7392935;19;1980;-43
2022/02/11 07:39:14;;;;;;;;;;;;;;;;;;7395067;19;2230;-42
2022/02/11 07:41:41;;;;;;;;;;;;;;;;;;7394184;19;2038;-42
2022/02/11 07:44:08;;;;;;;;;;;;;;;;;;7394460;19;2288;-44
2022/02/11 07:46:36;;;;;;;;;;;;;;;;;;7394960;19;2463;-42
2022/02/11 07:49:03;;;;;;;;;;;;;;;;;;7394728;19;2242;-42
2022/02/11 07:51:30;;;;;;;;;;;;;;;;;;7395646;19;2272;-43
2022/02/11 07:53:58;;;;;;;;;;;;;;;;;;7395211;19;1724;-42
2022/02/11 07:56:26;;;;;;;;;;;;;;;;;;7392073;19;1855;-42
2022/02/11 07:58:54;;;;;;;;;;;;;;;;;;7394798;19;2192;-42
2022/02/11 08:01:21;;;;;;;;;;;;;;;;;;7394159;19;2390;-43
2022/02/11 08:03:50;;;;;;;;;;;;;;;;;;7393961;19;2274;-42
2022/02/11 08:06:17;;;;;;;;;;;;;;;;;;7394534;19;2194;-42
2022/02/11 08:08:44;;;;;;;;;;;;;;;;;;7392301;19;2215;-43
2022/02/11 08:11:11;;;;;;;;;;;;;;;;;;7393735;19;2266;-42
2022/02/11 08:13:39;;;;;;;;;;;;;;;;;;7397040;19;2293;-42
2022/02/11 08:16:06;;;;;;;;;;;;;;;;;;7392556;19;2305;-43
2022/02/11 08:18:34;;;;;;;;;;;;;;;;;;7394308;19;2233;-43
2022/02/11 08:21:16;;;;;;;;;;;;;;;;;;7393725;19;2229;-42
2022/02/11 08:23:44;;;;;;;;;;;;;;;;;;7394478;19;2285;-42
2022/02/11 08:26:11;;;;;;;;;;;;;;;;;;7393813;19;2558;-42
2022/02/11 08:28:39;;;;;;;;;;;;;;;;;;7394111;19;2468;-42
2022/02/11 08:31:06;;;;;;;;;;;;;;;;;;7390889;19;2287;-43
2022/02/11 08:33:33;;;;;;;;;;;;;;;;;;7393505;19;2215;-42
2022/02/11 08:36:00;;;;;;;;;;;;;;;;;;7392045;19;2411;-42
2022/02/11 08:38:28;;;;;;;;;;;;;;;;;;7393383;19;2174;-43
2022/02/11 08:40:55;;;;;;;;;;;;;;;;;;7393523;19;2556;-47
2022/02/11 08:43:22;;;;;;;;;;;;;;;;;;7393538;19;1929;-42
2022/02/11 08:45:50;;;;;;;;;;;;;;;;;;7397470;19;2351;-46
2022/02/11 08:48:17;;;;;;;;;;;;;;;;;;7389003;19;2353;-47
2022/02/11 08:50:45;;;;;;;;;;;;;;;;;;7389376;19;2410;-43
2022/02/11 08:53:33;;;;;;;;;;;;;;;;;;7389106;19;2219;-47
2022/02/11 08:56:03;;;;;;;;;;;;;;;;;;7388168;19;2007;-48
2022/02/11 08:58:30;;;;;;;;;;;;;;;;;;7395803;19;2203;-45
2022/02/11 09:00:57;;;;;;;;;;;;;;;;;;7390375;19;1956;-48
2022/02/11 09:03:25;;;;;;;;;;;;;;;;;;7388976;19;2098;-48
2022/02/11 09:05:54;;;;;;;;;;;;;;;;;;7387780;19;2368;-47
2022/02/11 09:08:25;;;;;;;;;;;;;;;;;;7389061;19;1962;-48
2022/02/11 09:10:52;;;;;;;;;;;;;;;;;;7391274;19;1931;-47
2022/02/11 09:13:20;;;;;;;;;;;;;;;;;;7391705;19;2057;-44
2022/02/11 09:15:48;;;;;;;;;;;;;;;;;;7391689;19;2246;-42
2022/02/11 09:18:16;;;;;;;;;;;;;;;;;;7392237;19;2275;-51
2022/02/11 09:20:46;;;;;;;;;;;;;;;;;;7392186;19;2061;-50
2022/02/11 09:23:13;;;;;;;;;;;;;;;;;;7391956;19;1474;-48
2022/02/11 09:25:40;;;;;;;;;;;;;;;;;;7391387;19;2207;-50
2022/02/11 09:28:07;;;;;;;;;;;;;;;;;;7391544;19;2108;-43
2022/02/11 09:30:34;;;;;;;;;;;;;;;;;;7390795;19;2296;-42
2022/02/11 09:33:01;;;;;;;;;;;;;;;;;;7389144;19;2130;-49
2022/02/11 09:35:29;;;;;;;;;;;;;;;;;;7388983;19;2203;-42
2022/02/11 09:37:57;;;;;;;;;;;;;;;;;;7391660;19;2173;-46
2022/02/11 09:40:24;;;;;;;;;;;;;;;;;;7390906;19;2125;-42
2022/02/11 09:42:53;;;;;;;;;;;;;;;;;;7389540;19;2291;-42
2022/02/11 09:45:20;;;;;;;;;;;;;;;;;;7394376;19;2304;-42
2022/02/11 09:47:49;;;;;;;;;;;;;;;;;;7391526;19;2254;-42
2022/02/11 09:50:15;;;;;;;;;;;;;;;;;;7389604;19;1605;-42
2022/02/11 09:52:41;;;;;;;;;;;;;;;;;;7390155;19;1945;-43
2022/02/11 09:57:56;;;;;;;;;;;;;;;;;;7390186;19;2133;-42
2022/02/11 10:00:25;;;;;;;;;;;;;;;;;;7390574;19;1952;-42
2022/02/11 10:02:53;;;;;;;;;;;;;;;;;;7391077;19;2204;-42
2022/02/11 10:05:20;;;;;;;;;;;;;;;;;;7388777;19;2138;-42
2022/02/11 10:07:48;;;;;;;;;;;;;;;;;;7390230;19;1604;-41
2022/02/11 10:10:18;;;;;;;;;;;;;;;;;;7390907;19;2318;-42
2022/02/11 10:12:46;;;;;;;;;;;;;;;;;;7390769;19;2337;-42
2022/02/11 10:15:17;;;;;;;;;;;;;;;;;;7388504;19;2419;-42
2022/02/11 10:17:44;;;;;;;;;;;;;;;;;;7389523;19;1560;-41
2022/02/11 10:20:10;;;;;;;;;;;;;;;;;;7389902;19;2274;-40
2022/02/11 10:22:37;;;;;;;;;;;;;;;;;;7390200;19;1359;-40
2022/02/11 10:25:05;;;;;;;;;;;;;;;;;;7389865;19;2417;-40
2022/02/11 10:27:33;;;;;;;;;;;;;;;;;;7389705;19;2304;-41
2022/02/11 10:30:02;;;;;;;;;;;;;;;;;;7390104;19;2144;-49
2022/02/11 10:32:57;;;;;;;;;;;;;;;;;;7390186;19;2243;-43
2022/02/11 10:35:28;;;;;;;;;;;;;;;;;;7389170;19;1997;-43
2022/02/11 10:38:03;;;;;;;;;;;;;;;;;;7389329;19;2390;-43
2022/02/11 10:40:31;;;;;;;;;;;;;;;;;;7390165;19;2286;-42
2022/02/11 10:42:58;;;;;;;;;;;;;;;;;;7389604;19;2337;-43
2022/02/11 10:45:29;;;;;;;;;;;;;;;;;;7393045;19;2130;-43
2022/02/11 10:48:17;;;;;;;;;;;;;;;;;;7389922;19;2189;-43
2022/02/11 10:50:45;;;;;;;;;;;;;;;;;;7387481;19;2210;-43
2022/02/11 10:53:20;;;;;;;;;;;;;;;;;;7391094;19;1957;-42
2022/02/11 10:55:50;;;;;;;;;;;;;;;;;;7395479;19;2311;-43
2022/02/11 10:58:18;;;;;;;;;;;;;;;;;;7397163;19;2147;-43
2022/02/11 11:00:46;;;;;;;;;;;;;;;;;;7396308;19;2077;-42
2022/02/11 11:03:13;;;;;;;;;;;;;;;;;;7396320;19;2184;-43
2022/02/11 11:05:44;;;;;;;;;;;;;;;;;;7396576;19;1616;-43
2022/02/11 11:08:14;;;;;;;;;;;;;;;;;;7396774;19;2198;-43
2022/02/11 11:10:43;;;;;;;;;;;;;;;;;;7396654;19;2320;-47
2022/02/11 11:13:12;;;;;;;;;;;;;;;;;;7396039;19;2345;-43
2022/02/11 11:15:43;;;;;;;;;;;;;;;;;;7395207;19;2255;-43
2022/02/11 11:18:11;;;;;;;;;;;;;;;;;;7395873;19;2176;-43
2022/02/11 11:20:39;;;;;;;;;;;;;;;;;;7395548;19;2246;-42
2022/02/11 11:23:17;;;;;;;;;;;;;;;;;;7395820;19;2234;-42
2022/02/11 11:25:54;;;;;;;;;;;;;;;;;;7393816;19;2190;-42
2022/02/11 11:28:42;;;;;;;;;;;;;;;;;;7398936;19;2299;-43
2022/02/11 11:31:30;;;;;;;;;;;;;;;;;;7395174;19;1708;-43
2022/02/11 11:34:15;;;;;;;;;;;;;;;;;;7395728;19;2165;-42
2022/02/11 11:36:47;;;;;;;;;;;;;;;;;;7395321;19;2181;-43
2022/02/11 11:39:15;;;;;;;;;;;;;;;;;;7395479;19;2015;-43
2022/02/11 11:41:42;;;;;;;;;;;;;;;;;;7394973;19;2326;-43
2022/02/11 11:44:15;;;;;;;;;;;;;;;;;;7396029;19;2356;-45
2022/02/11 11:46:47;;;;;;;;;;;;;;;;;;7395384;19;2329;-47
2022/02/11 11:49:15;;;;;;;;;;;;;;;;;;7394400;19;1850;-43
2022/02/11 11:51:45;;;;;;;;;;;;;;;;;;7394573;19;1473;-46
2022/02/11 11:54:15;;;;;;;;;;;;;;;;;;7394187;19;2374;-43
2022/02/11 11:56:44;;;;;;;;;;;;;;;;;;7393307;19;2285;-43
2022/02/11 11:59:15;;;;;;;;;;;;;;;;;;7394767;19;2327;-42
2022/02/11 12:01:52;;;;;;;;;;;;;;;;;;7393830;19;2378;-43
2022/02/11 12:04:24;;;;;;;;;;;;;;;;;;7393614;19;2075;-42
2022/02/11 12:06:55;;;;;;;;;;;;;;;;;;7394641;19;2080;-43
2022/02/11 12:09:24;;;;;;;;;;;;;;;;;;7392129;19;2373;-43
2022/02/11 12:11:52;;;;;;;;;;;;;;;;;;7393719;19;2203;-42
2022/02/11 12:14:19;;;;;;;;;;;;;;;;;;7394935;19;2151;-42
2022/02/11 12:16:47;;;;;;;;;;;;;;;;;;7392168;19;2157;-44
2022/02/11 12:19:16;;;;;;;;;;;;;;;;;;7392308;19;2106;-42
2022/02/11 12:21:43;;;;;;;;;;;;;;;;;;7393805;19;2083;-43
2022/02/11 12:29:54;;;;;;;;;;;;;;;;;;7393742;19;2024;-43
2022/02/11 12:32:23;;;;;;;;;;;;;;;;;;7393757;19;2305;-43
2022/02/11 12:34:51;;;;;;;;;;;;;;;;;;7393406;19;2346;-42
2022/02/11 12:37:18;;;;;;;;;;;;;;;;;;7392123;19;2185;-42
2022/02/11 12:39:46;;;;;;;;;;;;;;;;;;7393287;19;2319;-43
2022/02/11 12:42:18;;;;;;;;;;;;;;;;;;7393260;19;2153;-43
2022/02/11 12:44:45;;;;;;;;;;;;;;;;;;7394956;19;2259;-43
2022/02/11 12:47:13;;;;;;;;;;;;;;;;;;7393062;19;2292;-42
2022/02/11 12:49:51;;;;;;;;;;;;;;;;;;7392300;19;2262;-43
2022/02/11 12:52:22;;;;;;;;;;;;;;;;;;7392346;19;1889;-43
2022/02/11 12:55:16;;;;;;;;;;;;;;;;;;7392350;19;2332;-43
2022/02/11 12:57:44;;;;;;;;;;;;;;;;;;7390502;19;2263;-42
2022/02/11 13:00:15;;;;;;;;;;;;;;;;;;7392436;19;2250;-43
2022/02/11 13:02:44;;;;;;;;;;;;;;;;;;7395194;19;2280;-42
2022/02/11 13:05:16;;;;;;;;;;;;;;;;;;7392584;19;2122;-42
2022/02/11 13:07:45;;;;;;;;;;;;;;;;;;7392460;19;2213;-43
2022/02/11 13:10:20;;;;;;;;;;;;;;;;;;7391640;19;2077;-42
2022/02/11 13:12:48;;;;;;;;;;;;;;;;;;7392035;19;2147;-42
2022/02/11 13:15:16;;;;;;;;;;;;;;;;;;7389993;19;2288;-43
2022/02/11 13:17:44;;;;;;;;;;;;;;;;;;7389267;19;1853;-42
2022/02/11 13:20:13;;;;;;;;;;;;;;;;;;7391458;19;2271;-43
2022/02/11 13:22:41;;;;;;;;;;;;;;;;;;7391878;19;2480;-42
2022/02/11 13:25:09;;;;;;;;;;;;;;;;;;7391541;19;2227;-42
2022/02/11 13:27:39;;;;;;;;;;;;;;;;;;7391505;19;2356;-43
2022/02/11 13:30:07;;;;;;;;;;;;;;;;;;7391195;19;2287;-46
2022/02/11 13:32:34;;;;;;;;;;;;;;;;;;7389977;19;2201;-42
2022/02/11 13:35:05;;;;;;;;;;;;;;;;;;7391882;19;2080;-45
2022/02/11 13:37:39;;;;;;;;;;;;;;;;;;7390259;19;2327;-42
2022/02/11 13:40:19;;;;;;;;;;;;;;;;;;7390839;19;2206;-44
2022/02/11 13:42:59;;;;;;;;;;;;;;;;;;7391385;19;2304;-41
2022/02/11 13:45:27;;;;;;;;;;;;;;;;;;7393923;19;2496;-43
2022/02/11 13:48:00;;;;;;;;;;;;;;;;;;7393674;19;2258;-43
2022/02/11 13:50:28;;;;;;;;;;;;;;;;;;7389261;19;2161;-52
2022/02/11 13:53:01;;;;;;;;;;;;;;;;;;7390865;19;2318;-41
2022/02/11 13:55:30;;;;;;;;;;;;;;;;;;7391065;19;2316;-43
2022/02/11 13:58:10;;;;;;;;;;;;;;;;;;7388944;19;2322;-42
2022/02/11 14:00:37;;;;;;;;;;;;;;;;;;7390489;19;2245;-44
2022/02/11 14:03:04;;;;;;;;;;;;;;;;;;7390434;19;2273;-42
2022/02/11 14:05:44;;;;;;;;;;;;;;;;;;7390347;19;2253;-42
2022/02/11 14:08:12;;;;;;;;;;;;;;;;;;7390439;19;2038;-41
2022/02/11 14:10:39;;;;;;;;;;;;;;;;;;7389972;19;2283;-43
2022/02/11 14:13:07;;;;;;;;;;;;;;;;;;7390272;19;2311;-42
2022/02/11 14:15:35;;;;;;;;;;;;;;;;;;7390204;19;2306;-44
2022/02/11 14:18:03;;;;;;;;;;;;;;;;;;7389019;19;2351;-42
2022/02/11 14:20:32;;;;;;;;;;;;;;;;;;7390873;19;2467;-46
2022/02/11 14:23:21;;;;;;;;;;;;;;;;;;7389834;19;2277;-45
2022/02/11 14:25:48;;;;;;;;;;;;;;;;;;7390039;19;1933;-42
2022/02/11 14:28:16;;;;;;;;;;;;;;;;;;7394882;19;2432;-42
2022/02/11 14:30:44;;;;;;;;;;;;;;;;;;7397043;19;2336;-42
2022/02/11 14:33:12;;;;;;;;;;;;;;;;;;7397353;19;2271;-42
2022/02/11 14:35:40;;;;;;;;;;;;;;;;;;7396912;19;1940;-42
2022/02/11 14:38:07;;;;;;;;;;;;;;;;;;7394848;19;2775;-42
2022/02/11 14:40:34;;;;;;;;;;;;;;;;;;7397544;19;2240;-41
2022/02/11 14:43:02;;;;;;;;;;;;;;;;;;7397960;19;2125;-48
2022/02/11 14:45:30;;;;;;;;;;;;;;;;;;7400445;19;1582;-42
2022/02/11 14:47:57;;;;;;;;;;;;;;;;;;7397134;19;2276;-46
2022/02/11 14:50:24;;;;;;;;;;;;;;;;;;7395041;19;2164;-44
2022/02/11 14:52:52;;;;;;;;;;;;;;;;;;7396438;19;2262;-41
2022/02/11 14:55:20;;;;;;;;;;;;;;;;;;7396922;19;2214;-42
2022/02/11 14:57:47;;;;;;;;;;;;;;;;;;7394193;19;2416;-42
2022/02/11 15:00:15;;;;;;;;;;;;;;;;;;7395997;19;2316;-42
2022/02/11 15:02:42;;;;;;;;;;;;;;;;;;7396541;19;2294;-42
2022/02/11 15:05:09;;;;;;;;;;;;;;;;;;7396486;19;2199;-45
2022/02/11 15:07:38;;;;;;;;;;;;;;;;;;7396646;19;2248;-44
2022/02/11 15:10:07;;;;;;;;;;;;;;;;;;7396340;19;2409;-41
2022/02/11 15:12:35;;;;;;;;;;;;;;;;;;7396196;19;2374;-42
2022/02/11 15:15:02;;;;;;;;;;;;;;;;;;7396222;19;2203;-41
2022/02/11 15:17:29;;;;;;;;;;;;;;;;;;7395270;19;2385;-42
2022/02/11 15:19:56;;;;;;;;;;;;;;;;;;7395746;19;2312;-43
2022/02/11 15:22:24;;;;;;;;;;;;;;;;;;7393926;19;2050;-41
2022/02/11 15:24:51;;;;;;;;;;;;;;;;;;7395824;19;1659;-46
2022/02/11 15:27:18;;;;;;;;;;;;;;;;;;7395486;19;2208;-41
2022/02/11 15:29:45;;;;;;;;;;;;;;;;;;7395067;19;2315;-42
2022/02/11 15:32:14;;;;;;;;;;;;;;;;;;7395121;19;2310;-41
2022/02/11 15:34:41;;;;;;;;;;;;;;;;;;7395604;19;2408;-42
2022/02/11 15:37:12;;;;;;;;;;;;;;;;;;7394831;19;1834;-46
2022/02/11 15:39:41;;;;;;;;;;;;;;;;;;7394513;19;2020;-45
2022/02/11 15:42:09;;;;;;;;;;;;;;;;;;7395723;19;2249;-42
2022/02/11 15:44:36;;;;;;;;;;;;;;;;;;7396925;19;2332;-50
2022/02/11 15:47:04;;;;;;;;;;;;;;;;;;7395605;19;2022;-41
2022/02/11 15:49:34;;;;;;;;;;;;;;;;;;7394414;19;2234;-42
2022/02/11 15:52:01;;;;;;;;;;;;;;;;;;7395503;19;2280;-41
2022/02/11 15:54:29;;;;;;;;;;;;;;;;;;7395302;19;2625;-42
2022/02/11 15:57:00;;;;;;;;;;;;;;;;;;7392503;19;2313;-43
2022/02/11 15:59:27;;;;;;;;;;;;;;;;;;7395193;19;1928;-44
2022/02/11 16:01:55;;;;;;;;;;;;;;;;;;7394835;19;1832;-45
2022/02/11 16:04:22;;;;;;;;;;;;;;;;;;7394509;19;2292;-41
2022/02/11 16:06:49;;;;;;;;;;;;;;;;;;7394299;19;2204;-41
2022/02/11 16:09:16;;;;;;;;;;;;;;;;;;7394589;19;1785;-42
2022/02/11 16:11:44;;;;;;;;;;;;;;;;;;7394944;19;1889;-41
2022/02/11 16:14:15;;;;;;;;;;;;;;;;;;7393955;19;2132;-48
2022/02/11 16:16:44;;;;;;;;;;;;;;;;;;7392021;19;2282;-43
2022/02/11 16:19:11;;;;;;;;;;;;;;;;;;7393847;19;2313;-47
2022/02/11 16:21:39;;;;;;;;;;;;;;;;;;7393802;19;2318;-50
2022/02/11 16:24:07;;;;;;;;;;;;;;;;;;7393941;19;2194;-49
2022/02/11 16:26:34;;;;;;;;;;;;;;;;;;7393878;19;2237;-42
2022/02/11 16:29:01;;;;;;;;;;;;;;;;;;7393797;19;1940;-44
2022/02/11 16:31:29;;;;;;;;;;;;;;;;;;7393189;19;2026;-42
2022/02/11 16:33:57;;;;;;;;;;;;;;;;;;7393067;19;2091;-49
2022/02/11 16:36:27;;;;;;;;;;;;;;;;;;7396814;19;2051;-41
2022/02/11 16:38:55;;;;;;;;;;;;;;;;;;7392906;19;2163;-45
2022/02/11 16:41:24;;;;;;;;;;;;;;;;;;7393171;19;2329;-41
2022/02/11 16:43:51;;;;;;;;;;;;;;;;;;7393335;19;2155;-43
2022/02/11 16:46:18;;;;;;;;;;;;;;;;;;7393432;19;2250;-43
2022/02/11 16:48:45;;;;;;;;;;;;;;;;;;7393146;19;2230;-42
2022/02/11 16:51:13;;;;;;;;;;;;;;;;;;7388011;19;2497;-41
2022/02/11 16:53:40;;;;;;;;;;;;;;;;;;7392922;19;1641;-41
2022/02/11 16:56:08;;;;;;;;;;;;;;;;;;7392564;19;2284;-42
2022/02/11 16:58:35;;;;;;;;;;;;;;;;;;7391250;19;2171;-42
2022/02/11 17:01:05;;;;;;;;;;;;;;;;;;7393031;19;2238;-43
2022/02/11 17:03:32;;;;;;;;;;;;;;;;;;7393247;19;2358;-44
2022/02/11 17:05:59;;;;;;;;;;;;;;;;;;7392548;19;2283;-42
2022/02/11 17:08:26;;;;;;;;;;;;;;;;;;7391997;19;2018;-42
2022/02/11 17:10:57;;;;;;;;;;;;;;;;;;7392808;19;2237;-42
2022/02/11 17:13:24;;;;;;;;;;;;;;;;;;7392011;19;2017;-41
2022/02/11 17:15:53;;;;;;;;;;;;;;;;;;7392100;19;1889;-42
2022/02/11 17:18:23;;;;;;;;;;;;;;;;;;7390480;19;2301;-41
2022/02/11 17:20:50;;;;;;;;;;;;;;;;;;7391587;19;2268;-42
2022/02/11 17:23:19;;;;;;;;;;;;;;;;;;7392137;19;2303;-42
2022/02/11 17:25:46;;;;;;;;;;;;;;;;;;7391814;19;1395;-40
2022/02/11 17:28:14;;;;;;;;;;;;;;;;;;7391991;19;2359;-45
2022/02/11 17:30:42;;;;;;;;;;;;;;;;;;7391769;19;2188;-42
2022/02/11 17:33:09;;;;;;;;;;;;;;;;;;7391548;19;2405;-42
2022/02/11 17:35:36;;;;;;;;;;;;;;;;;;7391453;19;1928;-41
2022/02/11 17:38:04;;;;;;;;;;;;;;;;;;7390915;19;2073;-42
2022/02/11 17:40:31;;;;;;;;;;;;;;;;;;7391623;19;2376;-41
2022/02/11 17:42:59;;;;;;;;;;;;;;;;;;7391499;19;2370;-42
2022/02/11 17:45:28;;;;;;;;;;;;;;;;;;7392554;19;2118;-41
2022/02/11 17:47:56;;;;;;;;;;;;;;;;;;7390569;19;2012;-42
2022/02/11 17:50:23;;;;;;;;;;;;;;;;;;7390052;19;2411;-42
2022/02/11 17:52:50;;;;;;;;;;;;;;;;;;7390679;19;1932;-40
2022/02/11 17:55:20;;;;;;;;;;;;;;;;;;7390184;19;2178;-42
2022/02/11 17:57:48;;;;;;;;;;;;;;;;;;7390378;19;1972;-41
2022/02/11 18:00:15;;;;;;;;;;;;;;;;;;7390838;19;2343;-43
2022/02/11 18:02:43;;;;;;;;;;;;;;;;;;7389447;19;2271;-42
2022/02/11 18:05:12;;;;;;;;;;;;;;;;;;7390854;19;2219;-46
2022/02/11 18:07:40;;;;;;;;;;;;;;;;;;7388686;19;2307;-42
2022/02/11 18:10:08;;;;;;;;;;;;;;;;;;7392085;19;1421;-44
2022/02/11 18:12:36;;;;;;;;;;;;;;;;;;7387715;19;2215;-41
2022/02/11 18:15:04;;;;;;;;;;;;;;;;;;7386782;19;2225;-41
2022/02/11 18:17:32;;;;;;;;;;;;;;;;;;7389560;19;2207;-43
2022/02/11 18:19:59;;;;;;;;;;;;;;;;;;7387225;19;2106;-49
2022/02/11 18:22:27;;;;;;;;;;;;;;;;;;7388257;19;2390;-41
2022/02/11 18:24:54;;;;;;;;;;;;;;;;;;7389100;19;2022;-44
2022/02/11 18:27:21;;;;;;;;;;;;;;;;;;7390625;19;2230;-42
2022/02/11 18:29:48;;;;;;;;;;;;;;;;;;7389750;19;2028;-44
2022/02/11 18:32:16;;;;;;;;;;;;;;;;;;7390070;19;1922;-44
2022/02/11 18:34:44;;;;;;;;;;;;;;;;;;7389879;19;2191;-48
2022/02/11 18:37:12;;;;;;;;;;;;;;;;;;7389106;19;2376;-42
2022/02/11 18:39:39;;;;;;;;;;;;;;;;;;7389029;19;1579;-42
2022/02/11 18:42:07;;;;;;;;;;;;;;;;;;7389496;19;2277;-44
2022/02/11 18:44:35;;;;;;;;;;;;;;;;;;7392000;19;2242;-44
2022/02/11 18:47:03;;;;;;;;;;;;;;;;;;7389678;19;2341;-42
2022/02/11 18:49:31;;;;;;;;;;;;;;;;;;7388504;19;1899;-43
2022/02/11 18:51:58;;;;;;;;;;;;;;;;;;7389758;19;2101;-44
2022/02/11 18:54:29;;;;;;;;;;;;;;;;;;7392530;19;2051;-44
2022/02/11 18:56:58;;;;;;;;;;;;;;;;;;7388956;19;2017;-42
2022/02/11 19:02:11;;;;;;;;;;;;;;;;;;7385937;19;2473;-45
2022/02/11 19:04:38;;;;;;;;;;;;;;;;;;7389521;19;2459;-41
2022/02/11 19:07:05;;;;;;;;;;;;;;;;;;7385502;19;2354;-43
2022/02/11 19:09:33;;;;;;;;;;;;;;;;;;7384437;19;2189;-42
2022/02/11 19:12:00;;;;;;;;;;;;;;;;;;7384683;19;1656;-42
2022/02/11 19:14:27;;;;;;;;;;;;;;;;;;7390579;19;2274;-46
2022/02/11 19:16:54;;;;;;;;;;;;;;;;;;7396055;19;2366;-41
2022/02/11 19:19:21;;;;;;;;;;;;;;;;;;7391866;19;2217;-46
2022/02/11 19:21:49;;;;;;;;;;;;;;;;;;7395254;19;2128;-44
2022/02/11 19:24:16;;;;;;;;;;;;;;;;;;7395501;19;2310;-47
2022/02/11 19:26:43;;;;;;;;;;;;;;;;;;7395588;19;2310;-43
2022/02/11 19:29:15;;;;;;;;;;;;;;;;;;7394901;19;2282;-47
2022/02/11 19:31:44;;;;;;;;;;;;;;;;;;7395804;19;2221;-44
2022/02/11 19:34:13;;;;;;;;;;;;;;;;;;7395323;19;2383;-46
2022/02/11 19:36:40;;;;;;;;;;;;;;;;;;7395387;19;2286;-42
2022/02/11 19:39:08;;;;;;;;;;;;;;;;;;7393946;19;2374;-42
2022/02/11 19:41:36;;;;;;;;;;;;;;;;;;7395609;19;2069;-42
2022/02/11 19:44:03;;;;;;;;;;;;;;;;;;7396276;19;2210;-46
2022/02/11 19:46:31;;;;;;;;;;;;;;;;;;7395046;19;1977;-47
2022/02/11 19:48:58;;;;;;;;;;;;;;;;;;7394576;19;2217;-47
2022/02/11 19:51:28;;;;;;;;;;;;;;;;;;7393640;19;2368;-44
2022/02/11 19:54:01;;;;;;;;;;;;;;;;;;7394518;19;1962;-41
2022/02/11 19:56:28;;;;;;;;;;;;;;;;;;7394418;19;2090;-42
2022/02/11 19:59:00;;;;;;;;;;;;;;;;;;7392749;19;2067;-48
2022/02/11 20:01:28;;;;;;;;;;;;;;;;;;7394837;19;2243;-44
2022/02/11 20:03:56;;;;;;;;;;;;;;;;;;7393888;19;2363;-44
2022/02/11 20:06:25;;;;;;;;;;;;;;;;;;7394669;19;2375;-45
2022/02/11 20:08:52;;;;;;;;;;;;;;;;;;7393136;19;2155;-42
2022/02/11 20:11:19;;;;;;;;;;;;;;;;;;7394046;19;2254;-43
2022/02/11 20:13:48;;;;;;;;;;;;;;;;;;7394078;19;2327;-47
2022/02/11 20:16:17;;;;;;;;;;;;;;;;;;7394256;19;2219;-42
2022/02/11 20:18:45;;;;;;;;;;;;;;;;;;7392544;19;2373;-45
2022/02/11 20:21:14;;;;;;;;;;;;;;;;;;7393704;19;2141;-43
2022/02/11 20:23:44;;;;;;;;;;;;;;;;;;7394368;19;2373;-48
2022/02/11 20:26:12;;;;;;;;;;;;;;;;;;7393015;19;1912;-42
2022/02/11 20:28:40;;;;;;;;;;;;;;;;;;7393753;19;2279;-45
2022/02/11 20:31:08;;;;;;;;;;;;;;;;;;7393532;19;2220;-42
2022/02/11 20:33:35;;;;;;;;;;;;;;;;;;7393447;19;2002;-42
2022/02/11 20:36:02;;;;;;;;;;;;;;;;;;7393474;19;2390;-41
2022/02/11 20:38:30;;;;;;;;;;;;;;;;;;7392252;19;2084;-43
2022/02/11 20:40:59;;;;;;;;;;;;;;;;;;7392448;19;2262;-43
2022/02/11 20:43:26;;;;;;;;;;;;;;;;;;7393363;19;2322;-44
2022/02/11 20:45:53;;;;;;;;;;;;;;;;;;7397416;19;1428;-43
2022/02/11 20:48:23;;;;;;;;;;;;;;;;;;7392469;19;2203;-44
2022/02/11 20:50:50;;;;;;;;;;;;;;;;;;7392073;19;2133;-43
2022/02/11 20:53:17;;;;;;;;;;;;;;;;;;7393411;19;2183;-46
2022/02/11 20:55:47;;;;;;;;;;;;;;;;;;7392458;19;2257;-44
2022/02/11 20:58:16;;;;;;;;;;;;;;;;;;7391928;19;2255;-42
2022/02/11 21:00:44;;;;;;;;;;;;;;;;;;7392904;19;2031;-45
2022/02/11 21:03:12;;;;;;;;;;;;;;;;;;7392761;19;1871;-45
2022/02/11 21:05:40;;;;;;;;;;;;;;;;;;7391129;19;1959;-43
2022/02/11 21:08:08;;;;;;;;;;;;;;;;;;7391554;19;2316;-45